Adele — 9HA2408 — position and weather

sailwx.info

Track history (hours):
 
Tides and Currents Weather Stations Pressure Air Temp Water Temp Dewpoint Dewpoint Depression Visibility Wind Speed Wind Dir Waves Ship Positions

Adele

Last reported at 2018-Jan-23 19:39 UTC. Time now 2018-Jan-23 20:07 UTC.
Position N 37°59' E 024°25'.

Length 88 m; draft 6.9 m.

Type: Tanker. MMSI: 248551000.

Date/timePositionNaut miles runAvg speedWind from/ knotsBaromVisibWave heightAir tempDewpointWater temp
2018-Jan-23 19:39N 37°59' E 024°25'0 0.0
2018-Jan-23 19:12N 37°59' E 024°25'0 0.0
2018-Jan-23 19:00N 37°59' E 024°25'0 0.0
2018-Jan-23 18:15N 37°59' E 024°25'0 0.0
2018-Jan-23 17:57N 37°59' E 024°25'0 0.0
2018-Jan-23 16:30N 37°59' E 024°25'3 6.7
2018-Jan-23 16:00N 37°56' E 024°26'4 7.3
2018-Jan-23 15:29N 37°52' E 024°24'4 7.0
2018-Jan-23 14:58N 37°49' E 024°23'3 6.2
2018-Jan-23 14:24N 37°46' E 024°21'3 6.5
2018-Jan-23 14:00N 37°44' E 024°18'4 6.9
2018-Jan-23 13:26N 37°42' E 024°14'2 4.9
2018-Jan-23 13:00N 37°41' E 024°12'3 5.9
2018-Jan-23 12:30N 37°39' E 024°09'3 6.2
2018-Jan-23 12:00N 37°37' E 024°06'4 7.1
2018-Jan-23 11:30N 37°37' E 024°02'4 7.4
2018-Jan-23 10:54N 37°37' E 023°56'7 7.2
2018-Jan-23 09:57N 37°38' E 023°47'4 7.4
2018-Jan-23 09:27N 37°40' E 023°43'4 7.9
2018-Jan-23 09:00N 37°43' E 023°41'4 7.9
2018-Jan-23 08:30N 37°46' E 023°38'4 7.5
2018-Jan-23 08:00N 37°49' E 023°35'4 7.6
2018-Jan-23 07:30N 37°50' E 023°31'4 7.3
2018-Jan-23 07:00N 37°50' E 023°26'4 7.3
2018-Jan-23 06:30N 37°51' E 023°22'4 7.2
2018-Jan-23 06:00N 37°52' E 023°17'4 7.4
2018-Jan-23 05:30N 37°53' E 023°13'4 7.6
2018-Jan-23 05:00N 37°53' E 023°08'3 5.0
2018-Jan-23 04:29N 37°55' E 023°05'0 0.0
2018-Jan-23 03:59N 37°55' E 023°05'0 0.0
2018-Jan-23 03:29N 37°55' E 023°05'0 0.0
2018-Jan-23 02:59N 37°55' E 023°05'0 0.0
2018-Jan-23 02:29N 37°55' E 023°05'0 0.0
2018-Jan-23 01:59N 37°55' E 023°05'0 0.0
2018-Jan-23 01:29N 37°55' E 023°05'0 0.0
2018-Jan-23 00:59N 37°55' E 023°05'0 0.0
2018-Jan-23 00:29N 37°55' E 023°05'0 0.0
2018-Jan-22 23:59N 37°55' E 023°05'0 0.0
2018-Jan-22 23:29N 37°55' E 023°05'0 0.0
2018-Jan-22 22:59N 37°55' E 023°05'0 0.0
2018-Jan-22 22:29N 37°55' E 023°05'0 0.0
2018-Jan-22 21:59N 37°55' E 023°05'0 0.0
2018-Jan-22 21:29N 37°55' E 023°05'0 0.1
2018-Jan-22 20:59N 37°55' E 023°05'0 0.1
2018-Jan-22 20:29N 37°55' E 023°05'0 0.0
2018-Jan-22 19:59N 37°55' E 023°05'0 0.0
2018-Jan-22 19:29N 37°55' E 023°05'0 0.0
2018-Jan-22 18:59N 37°55' E 023°05'0 0.0
2018-Jan-22 18:29N 37°55' E 023°05'0 0.0
2018-Jan-22 17:59N 37°55' E 023°05'0 0.0
2018-Jan-22 17:29N 37°55' E 023°05'0 0.0
2018-Jan-22 16:59N 37°55' E 023°05'0 0.0
2018-Jan-22 16:29N 37°55' E 023°05'0 0.0
2018-Jan-22 15:59N 37°55' E 023°05'0 0.0
2018-Jan-22 15:29N 37°55' E 023°05'0 0.0
2018-Jan-22 14:59N 37°55' E 023°05'0 0.0
2018-Jan-22 14:29N 37°55' E 023°05'0 0.0
2018-Jan-22 13:59N 37°55' E 023°05'0 0.0
2018-Jan-22 13:29N 37°55' E 023°05'0 0.0
2018-Jan-22 12:59N 37°55' E 023°05'0 0.0
2018-Jan-22 12:29N 37°55' E 023°05'0 0.0
2018-Jan-22 11:59N 37°55' E 023°05'0 0.0
2018-Jan-22 11:29N 37°55' E 023°05'0 0.0
2018-Jan-22 10:59N 37°55' E 023°05'0 0.0
2018-Jan-22 10:29N 37°55' E 023°05'0 0.0
2018-Jan-22 09:59N 37°55' E 023°05'0 0.0
2018-Jan-22 09:29N 37°55' E 023°05'0 0.0
2018-Jan-22 08:59N 37°55' E 023°05'0 0.0
2018-Jan-22 08:29N 37°55' E 023°05'0 0.0
2018-Jan-22 07:59N 37°55' E 023°05'0 0.0
2018-Jan-22 07:29N 37°55' E 023°05'0 0.0
2018-Jan-22 06:59N 37°55' E 023°05'0 0.0
2018-Jan-22 06:29N 37°55' E 023°05'0 0.0
2018-Jan-22 05:59N 37°55' E 023°05'0 0.0
2018-Jan-22 05:29N 37°55' E 023°05'0 0.0
2018-Jan-22 04:59N 37°55' E 023°05'0 0.0
2018-Jan-22 04:29N 37°55' E 023°05'0 0.0
2018-Jan-22 03:59N 37°55' E 023°05'0 0.0
2018-Jan-22 03:29N 37°55' E 023°05'0 0.0
2018-Jan-22 02:59N 37°55' E 023°05'0 1.0
2018-Jan-22 02:30N 37°55' E 023°06'0 0.4
2018-Jan-22 01:59N 37°55' E 023°06'0 0.0
2018-Jan-22 01:29N 37°55' E 023°06'0 0.0
2018-Jan-22 00:59N 37°55' E 023°06'0 0.1
2018-Jan-22 00:29N 37°55' E 023°06'0 0.1
2018-Jan-21 23:59N 37°55' E 023°06'0 0.0
2018-Jan-21 23:29N 37°55' E 023°06'0 0.1
2018-Jan-21 22:59N 37°55' E 023°06'0 0.1
2018-Jan-21 22:29N 37°55' E 023°06'0 0.0
2018-Jan-21 21:59N 37°55' E 023°06'0 0.0
2018-Jan-21 21:29N 37°55' E 023°06'0 0.0
2018-Jan-21 20:59N 37°55' E 023°06'0 0.0
2018-Jan-21 20:29N 37°55' E 023°06'0 0.1
2018-Jan-21 19:59N 37°55' E 023°06'0 0.0
2018-Jan-21 19:29N 37°55' E 023°06'0 0.1
2018-Jan-21 18:59N 37°55' E 023°06'0 0.0
2018-Jan-21 18:29N 37°55' E 023°06'0 0.1
2018-Jan-21 17:58N 37°55' E 023°06'0 0.1
2018-Jan-21 17:29N 37°55' E 023°06'0 0.0
2018-Jan-21 16:59N 37°55' E 023°06'0 0.2
2018-Jan-21 16:29N 37°55' E 023°06'0 0.2
2018-Jan-21 15:59N 37°55' E 023°06'0 0.0
2018-Jan-21 15:29N 37°55' E 023°06'0 0.0
2018-Jan-21 14:59N 37°55' E 023°06'0 0.0
2018-Jan-21 14:29N 37°55' E 023°06'0 0.0
2018-Jan-21 13:59N 37°55' E 023°06'0 0.0
2018-Jan-21 13:29N 37°55' E 023°06'0 0.1
2018-Jan-21 12:59N 37°55' E 023°06'0 0.0
2018-Jan-21 12:29N 37°55' E 023°06'0 0.0
2018-Jan-21 11:59N 37°55' E 023°06'0 0.0
2018-Jan-21 11:29N 37°55' E 023°06'0 0.0
2018-Jan-21 10:59N 37°55' E 023°06'0 0.0
2018-Jan-21 10:29N 37°55' E 023°06'0 0.0
2018-Jan-21 09:59N 37°55' E 023°06'0 0.0
2018-Jan-21 09:29N 37°55' E 023°06'0 0.1
2018-Jan-21 08:59N 37°55' E 023°06'0 0.0
2018-Jan-21 08:28N 37°55' E 023°06'0 0.0
2018-Jan-21 07:58N 37°55' E 023°06'0 0.0
2018-Jan-21 07:29N 37°55' E 023°06'0 0.0
2018-Jan-21 06:59N 37°55' E 023°06'0 0.0
2018-Jan-21 06:29N 37°55' E 023°06'0 0.0
2018-Jan-21 05:59N 37°55' E 023°06'0 0.0
2018-Jan-21 05:28N 37°55' E 023°06'0 0.0
2018-Jan-21 04:59N 37°55' E 023°06'0 0.0
2018-Jan-21 04:29N 37°55' E 023°06'0 0.0
2018-Jan-21 03:59N 37°55' E 023°06'0 0.1
2018-Jan-21 03:28N 37°55' E 023°06'0 0.0
2018-Jan-21 02:59N 37°55' E 023°06'0 0.0
2018-Jan-21 02:29N 37°55' E 023°06'0 0.0
2018-Jan-21 01:59N 37°55' E 023°06'0 0.1
2018-Jan-21 01:29N 37°55' E 023°06'0 0.1
2018-Jan-21 00:58N 37°55' E 023°06'0 0.0
2018-Jan-21 00:28N 37°55' E 023°06'0 0.0
2018-Jan-20 23:59N 37°55' E 023°06'0 0.0
2018-Jan-20 23:28N 37°55' E 023°06'0 0.1
2018-Jan-20 22:58N 37°55' E 023°06'0 0.0
2018-Jan-20 22:28N 37°55' E 023°06'0 0.0
2018-Jan-20 21:59N 37°55' E 023°06'0 0.0
2018-Jan-20 21:28N 37°55' E 023°06'0 0.0
2018-Jan-20 20:58N 37°55' E 023°06'0 0.0
2018-Jan-20 20:28N 37°55' E 023°06'0 0.0
2018-Jan-20 19:59N 37°55' E 023°06'0 0.0
2018-Jan-20 19:28N 37°55' E 023°06'0 0.0
2018-Jan-20 18:58N 37°55' E 023°06'0 0.0
2018-Jan-20 18:28N 37°55' E 023°06'2 5.1
2018-Jan-20 18:01N 37°54' E 023°09'4 8.3
2018-Jan-20 17:30N 37°53' E 023°14'4 8.3
2018-Jan-20 17:01N 37°52' E 023°19'4 8.2
2018-Jan-20 16:31N 37°51' E 023°24'4 8.2
2018-Jan-20 16:00N 37°50' E 023°29'3 7.0
2018-Jan-20 15:31N 37°52' E 023°33'4 7.6
2018-Jan-20 15:01N 37°56' E 023°34'1 2.6
2018-Jan-20 14:28N 37°57' E 023°35'0 0.0
2018-Jan-20 13:58N 37°57' E 023°35'0 0.0
2018-Jan-20 13:28N 37°57' E 023°35'0 0.0
2018-Jan-20 12:55N 37°57' E 023°35'0 0.0
2018-Jan-20 12:28N 37°57' E 023°35'0 0.0
2018-Jan-20 11:58N 37°57' E 023°35'0 0.0
2018-Jan-20 11:28N 37°57' E 023°35'0 0.0
2018-Jan-20 10:58N 37°57' E 023°35'0 0.0
2018-Jan-20 10:28N 37°57' E 023°35'0 0.0
2018-Jan-20 09:58N 37°57' E 023°35'0 0.0
2018-Jan-20 09:28N 37°57' E 023°35'0 0.0
2018-Jan-20 08:58N 37°57' E 023°35'0 0.0
2018-Jan-20 08:28N 37°57' E 023°35'0 0.0
2018-Jan-20 07:58N 37°57' E 023°35'0 0.0
2018-Jan-20 07:28N 37°57' E 023°35'0 0.0
2018-Jan-20 06:58N 37°57' E 023°35'0 0.0
2018-Jan-20 06:28N 37°57' E 023°35'0 0.0
2018-Jan-20 05:58N 37°57' E 023°35'0 0.0
2018-Jan-20 05:28N 37°57' E 023°35'0 0.0
2018-Jan-20 04:58N 37°57' E 023°35'0 0.0
2018-Jan-20 04:28N 37°57' E 023°35'0 0.0
2018-Jan-20 03:58N 37°57' E 023°35'0 0.0
2018-Jan-20 03:28N 37°57' E 023°35'0 0.0
2018-Jan-20 02:55N 37°57' E 023°35'0 0.0
2018-Jan-20 02:28N 37°57' E 023°35'0 0.0
2018-Jan-20 01:58N 37°57' E 023°35'0 0.0
2018-Jan-20 01:28N 37°57' E 023°35'0 0.0
2018-Jan-20 00:58N 37°57' E 023°35'0 0.0
2018-Jan-20 00:28N 37°57' E 023°35'0 0.0
2018-Jan-19 23:58N 37°57' E 023°35'0 0.0
2018-Jan-19 23:28N 37°57' E 023°35'0 0.0
2018-Jan-19 22:58N 37°57' E 023°35'0 0.0
2018-Jan-19 22:28N 37°57' E 023°35'0 0.0
2018-Jan-19 21:55N 37°57' E 023°35'0 0.0
2018-Jan-19 21:28N 37°57' E 023°35'0 0.0
2018-Jan-19 20:58N 37°57' E 023°35'0 0.0
2018-Jan-19 20:28N 37°57' E 023°35'0 0.0
2018-Jan-19 19:58N 37°57' E 023°35'0 0.0
2018-Jan-19 19:28N 37°57' E 023°35'0 0.0
2018-Jan-19 18:58N 37°57' E 023°35'0 0.0
2018-Jan-19 18:28N 37°57' E 023°35'0 0.0
2018-Jan-19 17:58N 37°57' E 023°35'0 0.0
2018-Jan-19 17:28N 37°57' E 023°35'0 0.0
2018-Jan-19 16:58N 37°57' E 023°35'0 0.0
2018-Jan-19 16:28N 37°57' E 023°35'0 0.0
2018-Jan-19 15:58N 37°57' E 023°35'0 0.0
2018-Jan-19 15:28N 37°57' E 023°35'0 0.0
2018-Jan-19 14:58N 37°57' E 023°35'0 0.0
2018-Jan-19 14:28N 37°57' E 023°35'0 0.0
2018-Jan-19 13:58N 37°57' E 023°35'0 0.0
2018-Jan-19 13:28N 37°57' E 023°35'0 0.0
2018-Jan-19 12:58N 37°57' E 023°35'0 0.0
2018-Jan-19 12:28N 37°57' E 023°35'0 0.0
2018-Jan-19 11:55N 37°57' E 023°35'0 0.0
2018-Jan-19 11:22N 37°57' E 023°35'0 0.0
2018-Jan-19 10:58N 37°57' E 023°35'0 0.0
2018-Jan-19 10:28N 37°57' E 023°35'0 0.0
2018-Jan-19 09:58N 37°57' E 023°35'0 0.0
2018-Jan-19 09:28N 37°57' E 023°35'0 0.0
2018-Jan-19 08:58N 37°57' E 023°35'0 0.0
2018-Jan-19 07:07N 37°57' E 023°35'0 0.0
2018-Jan-19 06:58N 37°57' E 023°35'0 0.0
2018-Jan-19 06:28N 37°57' E 023°35'0 0.0
2018-Jan-19 05:58N 37°57' E 023°35'0 0.0
2018-Jan-19 05:28N 37°57' E 023°35'0 0.0
2018-Jan-19 04:58N 37°57' E 023°35'0 0.0
2018-Jan-19 04:28N 37°57' E 023°35'0 0.0
2018-Jan-19 03:58N 37°57' E 023°35'0 0.0
2018-Jan-19 03:28N 37°57' E 023°35'0 0.0
2018-Jan-19 02:58N 37°57' E 023°35'0 0.0
2018-Jan-19 02:28N 37°57' E 023°35'0 0.0
2018-Jan-19 01:58N 37°57' E 023°35'0 0.0
2018-Jan-19 01:28N 37°57' E 023°35'0 0.0
2018-Jan-19 00:58N 37°57' E 023°35'0 0.0
2018-Jan-19 00:28N 37°57' E 023°35'0 0.0
2018-Jan-18 23:58N 37°57' E 023°35'0 0.0
2018-Jan-18 23:28N 37°57' E 023°35'0 0.0
2018-Jan-18 22:58N 37°57' E 023°35'0 0.0
2018-Jan-18 22:28N 37°57' E 023°35'0 0.0
2018-Jan-18 21:58N 37°57' E 023°35'0 0.0
2018-Jan-18 21:28N 37°57' E 023°35'1 1.3
2018-Jan-18 21:00N 37°57' E 023°36'3 6.4
2018-Jan-18 20:31N 37°54' E 023°34'4 7.7
2018-Jan-18 20:01N 37°51' E 023°31'4 8.1
2018-Jan-18 19:30N 37°51' E 023°26'4 8.1
2018-Jan-18 19:00N 37°52' E 023°21'4 8.1
2018-Jan-18 18:31N 37°52' E 023°16'4 8.1
2018-Jan-18 18:01N 37°53' E 023°11'4 8.1
2018-Jan-18 17:30N 37°54' E 023°06'1 1.7
2018-Jan-18 16:59N 37°55' E 023°05'0 0.0
2018-Jan-18 16:29N 37°55' E 023°05'0 0.0
2018-Jan-18 15:59N 37°55' E 023°05'0 0.0
2018-Jan-18 15:29N 37°55' E 023°05'0 0.0
2018-Jan-18 14:59N 37°55' E 023°05'0 0.0
2018-Jan-18 14:29N 37°55' E 023°05'0 0.0
2018-Jan-18 13:58N 37°55' E 023°05'0 0.0
2018-Jan-18 13:28N 37°55' E 023°05'0 0.0
2018-Jan-18 12:59N 37°55' E 023°05'0 0.0
2018-Jan-18 12:29N 37°55' E 023°05'0 0.0
2018-Jan-18 11:58N 37°55' E 023°05'0 0.0
2018-Jan-18 11:28N 37°55' E 023°05'0 0.0
2018-Jan-18 10:58N 37°55' E 023°05'0 0.0
2018-Jan-18 10:29N 37°55' E 023°05'0 0.0
2018-Jan-18 09:59N 37°55' E 023°05'0 0.0
2018-Jan-18 09:28N 37°55' E 023°05'0 0.0
2018-Jan-18 08:58N 37°55' E 023°05'0 0.0
2018-Jan-18 08:28N 37°55' E 023°05'0 0.0
2018-Jan-18 07:59N 37°55' E 023°05'0 0.0
2018-Jan-18 07:29N 37°55' E 023°05'0 0.0
2018-Jan-18 06:59N 37°55' E 023°05'0 0.0
2018-Jan-18 06:28N 37°55' E 023°05'0 0.0
2018-Jan-18 05:58N 37°55' E 023°05'0 0.0
2018-Jan-18 05:29N 37°55' E 023°05'0 0.0
2018-Jan-18 04:58N 37°55' E 023°05'0 0.0
2018-Jan-18 04:28N 37°55' E 023°05'0 0.0
2018-Jan-18 03:58N 37°55' E 023°05'0 0.0
2018-Jan-18 03:29N 37°55' E 023°05'0 0.0
2018-Jan-18 02:59N 37°55' E 023°05'0 0.0
2018-Jan-18 02:28N 37°55' E 023°05'0 0.0
2018-Jan-18 01:58N 37°55' E 023°05'0 0.0
2018-Jan-18 01:28N 37°55' E 023°05'0 0.0
2018-Jan-18 00:59N 37°55' E 023°05'0 0.0
2018-Jan-17 23:58N 37°55' E 023°05'0 0.0
2018-Jan-17 23:55N 37°55' E 023°05'  
Track history (hours):
 
Tides and Currents Weather Stations Pressure Air Temp Water Temp Dewpoint Dewpoint Depression Visibility Wind Speed Wind Dir Waves Ship Positions

Adele

Last reported at 2018-Jan-23 19:39 UTC. Time now 2018-Jan-23 20:07 UTC.
Position N 37°59' E 024°25'.

Length 88 m; draft 6.9 m.

Type: Tanker. MMSI: 248551000.

Date/timePositionNaut miles runAvg speedWind from/ knotsBaromVisibWave heightAir tempDewpointWater temp
2018-Jan-23 19:39N 37°59' E 024°25'0 0.0
2018-Jan-23 19:12N 37°59' E 024°25'0 0.0
2018-Jan-23 19:00N 37°59' E 024°25'0 0.0
2018-Jan-23 18:15N 37°59' E 024°25'0 0.0
2018-Jan-23 17:57N 37°59' E 024°25'0 0.0
2018-Jan-23 16:30N 37°59' E 024°25'3 6.7
2018-Jan-23 16:00N 37°56' E 024°26'4 7.3
2018-Jan-23 15:29N 37°52' E 024°24'4 7.0
2018-Jan-23 14:58N 37°49' E 024°23'3 6.2
2018-Jan-23 14:24N 37°46' E 024°21'3 6.5
2018-Jan-23 14:00N 37°44' E 024°18'4 6.9
2018-Jan-23 13:26N 37°42' E 024°14'2 4.9
2018-Jan-23 13:00N 37°41' E 024°12'3 5.9
2018-Jan-23 12:30N 37°39' E 024°09'3 6.2
2018-Jan-23 12:00N 37°37' E 024°06'4 7.1
2018-Jan-23 11:30N 37°37' E 024°02'4 7.4
2018-Jan-23 10:54N 37°37' E 023°56'7 7.2
2018-Jan-23 09:57N 37°38' E 023°47'4 7.4
2018-Jan-23 09:27N 37°40' E 023°43'4 7.9
2018-Jan-23 09:00N 37°43' E 023°41'4 7.9
2018-Jan-23 08:30N 37°46' E 023°38'4 7.5
2018-Jan-23 08:00N 37°49' E 023°35'4 7.6
2018-Jan-23 07:30N 37°50' E 023°31'4 7.3
2018-Jan-23 07:00N 37°50' E 023°26'4 7.3
2018-Jan-23 06:30N 37°51' E 023°22'4 7.2
2018-Jan-23 06:00N 37°52' E 023°17'4 7.4
2018-Jan-23 05:30N 37°53' E 023°13'4 7.6
2018-Jan-23 05:00N 37°53' E 023°08'3 5.0
2018-Jan-23 04:29N 37°55' E 023°05'0 0.0
2018-Jan-23 03:59N 37°55' E 023°05'0 0.0
2018-Jan-23 03:29N 37°55' E 023°05'0 0.0
2018-Jan-23 02:59N 37°55' E 023°05'0 0.0
2018-Jan-23 02:29N 37°55' E 023°05'0 0.0
2018-Jan-23 01:59N 37°55' E 023°05'0 0.0
2018-Jan-23 01:29N 37°55' E 023°05'0 0.0
2018-Jan-23 00:59N 37°55' E 023°05'0 0.0
2018-Jan-23 00:29N 37°55' E 023°05'0 0.0
2018-Jan-22 23:59N 37°55' E 023°05'0 0.0
2018-Jan-22 23:29N 37°55' E 023°05'0 0.0
2018-Jan-22 22:59N 37°55' E 023°05'0 0.0
2018-Jan-22 22:29N 37°55' E 023°05'0 0.0
2018-Jan-22 21:59N 37°55' E 023°05'0 0.0
2018-Jan-22 21:29N 37°55' E 023°05'0 0.1
2018-Jan-22 20:59N 37°55' E 023°05'0 0.1
2018-Jan-22 20:29N 37°55' E 023°05'0 0.0
2018-Jan-22 19:59N 37°55' E 023°05'0 0.0
2018-Jan-22 19:29N 37°55' E 023°05'0 0.0
2018-Jan-22 18:59N 37°55' E 023°05'0 0.0
2018-Jan-22 18:29N 37°55' E 023°05'0 0.0
2018-Jan-22 17:59N 37°55' E 023°05'0 0.0
2018-Jan-22 17:29N 37°55' E 023°05'0 0.0
2018-Jan-22 16:59N 37°55' E 023°05'0 0.0
2018-Jan-22 16:29N 37°55' E 023°05'0 0.0
2018-Jan-22 15:59N 37°55' E 023°05'0 0.0
2018-Jan-22 15:29N 37°55' E 023°05'0 0.0
2018-Jan-22 14:59N 37°55' E 023°05'0 0.0
2018-Jan-22 14:29N 37°55' E 023°05'0 0.0
2018-Jan-22 13:59N 37°55' E 023°05'0 0.0
2018-Jan-22 13:29N 37°55' E 023°05'0 0.0
2018-Jan-22 12:59N 37°55' E 023°05'0 0.0
2018-Jan-22 12:29N 37°55' E 023°05'0 0.0
2018-Jan-22 11:59N 37°55' E 023°05'0 0.0
2018-Jan-22 11:29N 37°55' E 023°05'0 0.0
2018-Jan-22 10:59N 37°55' E 023°05'0 0.0
2018-Jan-22 10:29N 37°55' E 023°05'0 0.0
2018-Jan-22 09:59N 37°55' E 023°05'0 0.0
2018-Jan-22 09:29N 37°55' E 023°05'0 0.0
2018-Jan-22 08:59N 37°55' E 023°05'0 0.0
2018-Jan-22 08:29N 37°55' E 023°05'0 0.0
2018-Jan-22 07:59N 37°55' E 023°05'0 0.0
2018-Jan-22 07:29N 37°55' E 023°05'0 0.0
2018-Jan-22 06:59N 37°55' E 023°05'0 0.0
2018-Jan-22 06:29N 37°55' E 023°05'0 0.0
2018-Jan-22 05:59N 37°55' E 023°05'0 0.0
2018-Jan-22 05:29N 37°55' E 023°05'0 0.0
2018-Jan-22 04:59N 37°55' E 023°05'0 0.0
2018-Jan-22 04:29N 37°55' E 023°05'0 0.0
2018-Jan-22 03:59N 37°55' E 023°05'0 0.0
2018-Jan-22 03:29N 37°55' E 023°05'0 0.0
2018-Jan-22 02:59N 37°55' E 023°05'0 1.0
2018-Jan-22 02:30N 37°55' E 023°06'0 0.4
2018-Jan-22 01:59N 37°55' E 023°06'0 0.0
2018-Jan-22 01:29N 37°55' E 023°06'0 0.0
2018-Jan-22 00:59N 37°55' E 023°06'0 0.1
2018-Jan-22 00:29N 37°55' E 023°06'0 0.1
2018-Jan-21 23:59N 37°55' E 023°06'0 0.0
2018-Jan-21 23:29N 37°55' E 023°06'0 0.1
2018-Jan-21 22:59N 37°55' E 023°06'0 0.1
2018-Jan-21 22:29N 37°55' E 023°06'0 0.0
2018-Jan-21 21:59N 37°55' E 023°06'0 0.0
2018-Jan-21 21:29N 37°55' E 023°06'0 0.0
2018-Jan-21 20:59N 37°55' E 023°06'0 0.0
2018-Jan-21 20:29N 37°55' E 023°06'0 0.1
2018-Jan-21 19:59N 37°55' E 023°06'0 0.0
2018-Jan-21 19:29N 37°55' E 023°06'0 0.1
2018-Jan-21 18:59N 37°55' E 023°06'0 0.0
2018-Jan-21 18:29N 37°55' E 023°06'0 0.1
2018-Jan-21 17:58N 37°55' E 023°06'0 0.1
2018-Jan-21 17:29N 37°55' E 023°06'0 0.0
2018-Jan-21 16:59N 37°55' E 023°06'0 0.2
2018-Jan-21 16:29N 37°55' E 023°06'0 0.2
2018-Jan-21 15:59N 37°55' E 023°06'0 0.0
2018-Jan-21 15:29N 37°55' E 023°06'0 0.0
2018-Jan-21 14:59N 37°55' E 023°06'0 0.0
2018-Jan-21 14:29N 37°55' E 023°06'0 0.0
2018-Jan-21 13:59N 37°55' E 023°06'0 0.0
2018-Jan-21 13:29N 37°55' E 023°06'0 0.1
2018-Jan-21 12:59N 37°55' E 023°06'0 0.0
2018-Jan-21 12:29N 37°55' E 023°06'0 0.0
2018-Jan-21 11:59N 37°55' E 023°06'0 0.0
2018-Jan-21 11:29N 37°55' E 023°06'0 0.0
2018-Jan-21 10:59N 37°55' E 023°06'0 0.0
2018-Jan-21 10:29N 37°55' E 023°06'0 0.0
2018-Jan-21 09:59N 37°55' E 023°06'0 0.0
2018-Jan-21 09:29N 37°55' E 023°06'0 0.1
2018-Jan-21 08:59N 37°55' E 023°06'0 0.0
2018-Jan-21 08:28N 37°55' E 023°06'0 0.0
2018-Jan-21 07:58N 37°55' E 023°06'0 0.0
2018-Jan-21 07:29N 37°55' E 023°06'0 0.0
2018-Jan-21 06:59N 37°55' E 023°06'0 0.0
2018-Jan-21 06:29N 37°55' E 023°06'0 0.0
2018-Jan-21 05:59N 37°55' E 023°06'0 0.0
2018-Jan-21 05:28N 37°55' E 023°06'0 0.0
2018-Jan-21 04:59N 37°55' E 023°06'0 0.0
2018-Jan-21 04:29N 37°55' E 023°06'0 0.0
2018-Jan-21 03:59N 37°55' E 023°06'0 0.1
2018-Jan-21 03:28N 37°55' E 023°06'0 0.0
2018-Jan-21 02:59N 37°55' E 023°06'0 0.0
2018-Jan-21 02:29N 37°55' E 023°06'0 0.0
2018-Jan-21 01:59N 37°55' E 023°06'0 0.1
2018-Jan-21 01:29N 37°55' E 023°06'0 0.1
2018-Jan-21 00:58N 37°55' E 023°06'0 0.0
2018-Jan-21 00:28N 37°55' E 023°06'0 0.0
2018-Jan-20 23:59N 37°55' E 023°06'0 0.0
2018-Jan-20 23:28N 37°55' E 023°06'0 0.1
2018-Jan-20 22:58N 37°55' E 023°06'0 0.0
2018-Jan-20 22:28N 37°55' E 023°06'0 0.0
2018-Jan-20 21:59N 37°55' E 023°06'0 0.0
2018-Jan-20 21:28N 37°55' E 023°06'0 0.0
2018-Jan-20 20:58N 37°55' E 023°06'0 0.0
2018-Jan-20 20:28N 37°55' E 023°06'0 0.0
2018-Jan-20 19:59N 37°55' E 023°06'0 0.0
2018-Jan-20 19:28N 37°55' E 023°06'0 0.0
2018-Jan-20 18:58N 37°55' E 023°06'0 0.0
2018-Jan-20 18:28N 37°55' E 023°06'2 5.1
2018-Jan-20 18:01N 37°54' E 023°09'4 8.3
2018-Jan-20 17:30N 37°53' E 023°14'4 8.3
2018-Jan-20 17:01N 37°52' E 023°19'4 8.2
2018-Jan-20 16:31N 37°51' E 023°24'4 8.2
2018-Jan-20 16:00N 37°50' E 023°29'3 7.0
2018-Jan-20 15:31N 37°52' E 023°33'4 7.6
2018-Jan-20 15:01N 37°56' E 023°34'1 2.6
2018-Jan-20 14:28N 37°57' E 023°35'0 0.0
2018-Jan-20 13:58N 37°57' E 023°35'0 0.0
2018-Jan-20 13:28N 37°57' E 023°35'0 0.0
2018-Jan-20 12:55N 37°57' E 023°35'0 0.0
2018-Jan-20 12:28N 37°57' E 023°35'0 0.0
2018-Jan-20 11:58N 37°57' E 023°35'0 0.0
2018-Jan-20 11:28N 37°57' E 023°35'0 0.0
2018-Jan-20 10:58N 37°57' E 023°35'0 0.0
2018-Jan-20 10:28N 37°57' E 023°35'0 0.0
2018-Jan-20 09:58N 37°57' E 023°35'0 0.0
2018-Jan-20 09:28N 37°57' E 023°35'0 0.0
2018-Jan-20 08:58N 37°57' E 023°35'0 0.0
2018-Jan-20 08:28N 37°57' E 023°35'0 0.0
2018-Jan-20 07:58N 37°57' E 023°35'0 0.0
2018-Jan-20 07:28N 37°57' E 023°35'0 0.0
2018-Jan-20 06:58N 37°57' E 023°35'0 0.0
2018-Jan-20 06:28N 37°57' E 023°35'0 0.0
2018-Jan-20 05:58N 37°57' E 023°35'0 0.0
2018-Jan-20 05:28N 37°57' E 023°35'0 0.0
2018-Jan-20 04:58N 37°57' E 023°35'0 0.0
2018-Jan-20 04:28N 37°57' E 023°35'0 0.0
2018-Jan-20 03:58N 37°57' E 023°35'0 0.0
2018-Jan-20 03:28N 37°57' E 023°35'0 0.0
2018-Jan-20 02:55N 37°57' E 023°35'0 0.0
2018-Jan-20 02:28N 37°57' E 023°35'0 0.0
2018-Jan-20 01:58N 37°57' E 023°35'0 0.0
2018-Jan-20 01:28N 37°57' E 023°35'0 0.0
2018-Jan-20 00:58N 37°57' E 023°35'0 0.0
2018-Jan-20 00:28N 37°57' E 023°35'0 0.0
2018-Jan-19 23:58N 37°57' E 023°35'0 0.0
2018-Jan-19 23:28N 37°57' E 023°35'0 0.0
2018-Jan-19 22:58N 37°57' E 023°35'0 0.0
2018-Jan-19 22:28N 37°57' E 023°35'0 0.0
2018-Jan-19 21:55N 37°57' E 023°35'0 0.0
2018-Jan-19 21:28N 37°57' E 023°35'0 0.0
2018-Jan-19 20:58N 37°57' E 023°35'0 0.0
2018-Jan-19 20:28N 37°57' E 023°35'0 0.0
2018-Jan-19 19:58N 37°57' E 023°35'0 0.0
2018-Jan-19 19:28N 37°57' E 023°35'0 0.0
2018-Jan-19 18:58N 37°57' E 023°35'0 0.0
2018-Jan-19 18:28N 37°57' E 023°35'0 0.0
2018-Jan-19 17:58N 37°57' E 023°35'0 0.0
2018-Jan-19 17:28N 37°57' E 023°35'0 0.0
2018-Jan-19 16:58N 37°57' E 023°35'0 0.0
2018-Jan-19 16:28N 37°57' E 023°35'0 0.0
2018-Jan-19 15:58N 37°57' E 023°35'0 0.0
2018-Jan-19 15:28N 37°57' E 023°35'0 0.0
2018-Jan-19 14:58N 37°57' E 023°35'0 0.0
2018-Jan-19 14:28N 37°57' E 023°35'0 0.0
2018-Jan-19 13:58N 37°57' E 023°35'0 0.0
2018-Jan-19 13:28N 37°57' E 023°35'0 0.0
2018-Jan-19 12:58N 37°57' E 023°35'0 0.0
2018-Jan-19 12:28N 37°57' E 023°35'0 0.0
2018-Jan-19 11:55N 37°57' E 023°35'0 0.0
2018-Jan-19 11:22N 37°57' E 023°35'0 0.0
2018-Jan-19 10:58N 37°57' E 023°35'0 0.0
2018-Jan-19 10:28N 37°57' E 023°35'0 0.0
2018-Jan-19 09:58N 37°57' E 023°35'0 0.0
2018-Jan-19 09:28N 37°57' E 023°35'0 0.0
2018-Jan-19 08:58N 37°57' E 023°35'0 0.0
2018-Jan-19 07:07N 37°57' E 023°35'0 0.0
2018-Jan-19 06:58N 37°57' E 023°35'0 0.0
2018-Jan-19 06:28N 37°57' E 023°35'0 0.0
2018-Jan-19 05:58N 37°57' E 023°35'0 0.0
2018-Jan-19 05:28N 37°57' E 023°35'0 0.0
2018-Jan-19 04:58N 37°57' E 023°35'0 0.0
2018-Jan-19 04:28N 37°57' E 023°35'0 0.0
2018-Jan-19 03:58N 37°57' E 023°35'0 0.0
2018-Jan-19 03:28N 37°57' E 023°35'0 0.0
2018-Jan-19 02:58N 37°57' E 023°35'0 0.0
2018-Jan-19 02:28N 37°57' E 023°35'0 0.0
2018-Jan-19 01:58N 37°57' E 023°35'0 0.0
2018-Jan-19 01:28N 37°57' E 023°35'0 0.0
2018-Jan-19 00:58N 37°57' E 023°35'0 0.0
2018-Jan-19 00:28N 37°57' E 023°35'0 0.0
2018-Jan-18 23:58N 37°57' E 023°35'0 0.0
2018-Jan-18 23:28N 37°57' E 023°35'0 0.0
2018-Jan-18 22:58N 37°57' E 023°35'0 0.0
2018-Jan-18 22:28N 37°57' E 023°35'0 0.0
2018-Jan-18 21:58N 37°57' E 023°35'0 0.0
2018-Jan-18 21:28N 37°57' E 023°35'1 1.3
2018-Jan-18 21:00N 37°57' E 023°36'3 6.4
2018-Jan-18 20:31N 37°54' E 023°34'4 7.7
2018-Jan-18 20:01N 37°51' E 023°31'4 8.1
2018-Jan-18 19:30N 37°51' E 023°26'4 8.1
2018-Jan-18 19:00N 37°52' E 023°21'4 8.1
2018-Jan-18 18:31N 37°52' E 023°16'4 8.1
2018-Jan-18 18:01N 37°53' E 023°11'4 8.1
2018-Jan-18 17:30N 37°54' E 023°06'1 1.7
2018-Jan-18 16:59N 37°55' E 023°05'0 0.0
2018-Jan-18 16:29N 37°55' E 023°05'0 0.0
2018-Jan-18 15:59N 37°55' E 023°05'0 0.0
2018-Jan-18 15:29N 37°55' E 023°05'0 0.0
2018-Jan-18 14:59N 37°55' E 023°05'0 0.0
2018-Jan-18 14:29N 37°55' E 023°05'0 0.0
2018-Jan-18 13:58N 37°55' E 023°05'0 0.0
2018-Jan-18 13:28N 37°55' E 023°05'0 0.0
2018-Jan-18 12:59N 37°55' E 023°05'0 0.0
2018-Jan-18 12:29N 37°55' E 023°05'0 0.0
2018-Jan-18 11:58N 37°55' E 023°05'0 0.0
2018-Jan-18 11:28N 37°55' E 023°05'0 0.0
2018-Jan-18 10:58N 37°55' E 023°05'0 0.0
2018-Jan-18 10:29N 37°55' E 023°05'0 0.0
2018-Jan-18 09:59N 37°55' E 023°05'0 0.0
2018-Jan-18 09:28N 37°55' E 023°05'0 0.0
2018-Jan-18 08:58N 37°55' E 023°05'0 0.0
2018-Jan-18 08:28N 37°55' E 023°05'0 0.0
2018-Jan-18 07:59N 37°55' E 023°05'0 0.0
2018-Jan-18 07:29N 37°55' E 023°05'0 0.0
2018-Jan-18 06:59N 37°55' E 023°05'0 0.0
2018-Jan-18 06:28N 37°55' E 023°05'0 0.0
2018-Jan-18 05:58N 37°55' E 023°05'0 0.0
2018-Jan-18 05:29N 37°55' E 023°05'0 0.0
2018-Jan-18 04:58N 37°55' E 023°05'0 0.0
2018-Jan-18 04:28N 37°55' E 023°05'0 0.0
2018-Jan-18 03:58N 37°55' E 023°05'0 0.0
2018-Jan-18 03:29N 37°55' E 023°05'0 0.0
2018-Jan-18 02:59N 37°55' E 023°05'0 0.0
2018-Jan-18 02:28N 37°55' E 023°05'0 0.0
2018-Jan-18 01:58N 37°55' E 023°05'0 0.0
2018-Jan-18 01:28N 37°55' E 023°05'0 0.0
2018-Jan-18 00:59N 37°55' E 023°05'0 0.0
2018-Jan-17 23:58N 37°55' E 023°05'0 0.0
2018-Jan-17 23:55N 37°55' E 023°05'  

Dump ship's entire track history